sensor_id;sensor_type;location;lat;lon;timestamp;P1;durP1;ratioP1;P2;durP2;ratioP2
41343;SDS011;27089;50.022;7.604;2022-12-07T00:01:15;11.47;;;7.27;;
41343;SDS011;27089;50.022;7.604;2022-12-07T00:03:44;10.50;;;6.50;;
41343;SDS011;27089;50.022;7.604;2022-12-07T00:06:13;12.30;;;6.60;;
41343;SDS011;27089;50.022;7.604;2022-12-07T00:08:42;12.33;;;6.97;;
41343;SDS011;27089;50.022;7.604;2022-12-07T00:11:10;9.67;;;5.87;;
41343;SDS011;27089;50.022;7.604;2022-12-07T00:13:38;12.07;;;6.60;;
41343;SDS011;27089;50.022;7.604;2022-12-07T00:16:06;11.00;;;6.60;;
41343;SDS011;27089;50.022;7.604;2022-12-07T00:18:35;9.13;;;6.57;;
41343;SDS011;27089;50.022;7.604;2022-12-07T00:21:03;9.80;;;6.43;;
41343;SDS011;27089;50.022;7.604;2022-12-07T00:23:33;9.80;;;6.60;;
41343;SDS011;27089;50.022;7.604;2022-12-07T00:26:04;10.27;;;7.03;;
41343;SDS011;27089;50.022;7.604;2022-12-07T00:28:31;12.03;;;7.37;;
41343;SDS011;27089;50.022;7.604;2022-12-07T00:31:00;10.53;;;6.27;;
41343;SDS011;27089;50.022;7.604;2022-12-07T00:33:28;10.57;;;6.87;;
41343;SDS011;27089;50.022;7.604;2022-12-07T00:35:55;10.87;;;6.77;;
41343;SDS011;27089;50.022;7.604;2022-12-07T00:38:23;12.27;;;6.80;;
41343;SDS011;27089;50.022;7.604;2022-12-07T00:40:55;10.63;;;6.93;;
41343;SDS011;27089;50.022;7.604;2022-12-07T00:43:23;8.70;;;6.37;;
41343;SDS011;27089;50.022;7.604;2022-12-07T00:45:49;9.57;;;6.43;;
41343;SDS011;27089;50.022;7.604;2022-12-07T00:48:16;9.47;;;6.57;;
41343;SDS011;27089;50.022;7.604;2022-12-07T00:50:43;8.10;;;5.77;;
41343;SDS011;27089;50.022;7.604;2022-12-07T00:53:10;10.70;;;6.70;;
41343;SDS011;27089;50.022;7.604;2022-12-07T00:55:37;11.43;;;7.20;;
41343;SDS011;27089;50.022;7.604;2022-12-07T00:58:06;10.90;;;6.60;;
41343;SDS011;27089;50.022;7.604;2022-12-07T01:00:34;9.93;;;6.93;;
41343;SDS011;27089;50.022;7.604;2022-12-07T01:03:03;12.30;;;7.27;;
41343;SDS011;27089;50.022;7.604;2022-12-07T01:05:30;9.77;;;7.10;;
41343;SDS011;27089;50.022;7.604;2022-12-07T01:07:57;10.90;;;7.20;;
41343;SDS011;27089;50.022;7.604;2022-12-07T01:10:24;12.60;;;6.73;;
41343;SDS011;27089;50.022;7.604;2022-12-07T01:12:51;9.80;;;6.93;;
41343;SDS011;27089;50.022;7.604;2022-12-07T01:15:20;11.50;;;6.80;;
41343;SDS011;27089;50.022;7.604;2022-12-07T01:17:47;13.10;;;7.60;;
41343;SDS011;27089;50.022;7.604;2022-12-07T01:20:14;10.73;;;7.37;;
41343;SDS011;27089;50.022;7.604;2022-12-07T01:22:41;10.27;;;7.20;;
41343;SDS011;27089;50.022;7.604;2022-12-07T01:25:10;10.73;;;7.10;;
41343;SDS011;27089;50.022;7.604;2022-12-07T01:27:37;10.90;;;7.10;;
41343;SDS011;27089;50.022;7.604;2022-12-07T01:30:05;10.90;;;7.27;;
41343;SDS011;27089;50.022;7.604;2022-12-07T01:32:34;10.93;;;7.73;;
41343;SDS011;27089;50.022;7.604;2022-12-07T01:35:01;13.17;;;7.93;;
41343;SDS011;27089;50.022;7.604;2022-12-07T01:37:28;10.97;;;7.23;;
41343;SDS011;27089;50.022;7.604;2022-12-07T01:40:01;11.73;;;7.60;;
41343;SDS011;27089;50.022;7.604;2022-12-07T01:42:28;13.87;;;8.63;;
41343;SDS011;27089;50.022;7.604;2022-12-07T01:48:13;13.53;;;8.40;;
41343;SDS011;27089;50.022;7.604;2022-12-07T01:50:43;13.23;;;7.83;;
41343;SDS011;27089;50.022;7.604;2022-12-07T01:53:11;12.53;;;7.83;;
41343;SDS011;27089;50.022;7.604;2022-12-07T01:55:40;14.40;;;9.13;;
41343;SDS011;27089;50.022;7.604;2022-12-07T01:58:10;12.23;;;8.00;;
41343;SDS011;27089;50.022;7.604;2022-12-07T02:00:38;11.67;;;7.97;;
41343;SDS011;27089;50.022;7.604;2022-12-07T02:03:07;12.57;;;7.87;;
41343;SDS011;27089;50.022;7.604;2022-12-07T02:05:38;13.70;;;8.90;;
41343;SDS011;27089;50.022;7.604;2022-12-07T02:08:07;16.43;;;9.30;;
41343;SDS011;27089;50.022;7.604;2022-12-07T02:10:35;15.60;;;9.30;;
41343;SDS011;27089;50.022;7.604;2022-12-07T02:13:03;12.07;;;7.73;;
41343;SDS011;27089;50.022;7.604;2022-12-07T02:15:35;14.67;;;8.97;;
41343;SDS011;27089;50.022;7.604;2022-12-07T02:18:20;14.90;;;9.10;;
41343;SDS011;27089;50.022;7.604;2022-12-07T02:20:57;14.90;;;9.07;;
41343;SDS011;27089;50.022;7.604;2022-12-07T02:23:43;14.27;;;9.07;;
41343;SDS011;27089;50.022;7.604;2022-12-07T02:26:50;14.67;;;9.30;;
41343;SDS011;27089;50.022;7.604;2022-12-07T02:29:36;16.30;;;9.83;;
41343;SDS011;27089;50.022;7.604;2022-12-07T02:32:10;16.43;;;10.27;;
41343;SDS011;27089;50.022;7.604;2022-12-07T02:34:43;14.80;;;8.83;;
41343;SDS011;27089;50.022;7.604;2022-12-07T02:37:18;14.30;;;9.23;;
41343;SDS011;27089;50.022;7.604;2022-12-07T02:39:54;15.57;;;9.10;;
41343;SDS011;27089;50.022;7.604;2022-12-07T02:42:26;14.90;;;9.87;;
41343;SDS011;27089;50.022;7.604;2022-12-07T02:45:00;16.93;;;9.83;;
41343;SDS011;27089;50.022;7.604;2022-12-07T02:47:28;19.80;;;9.97;;
41343;SDS011;27089;50.022;7.604;2022-12-07T02:49:58;15.40;;;9.37;;
41343;SDS011;27089;50.022;7.604;2022-12-07T02:52:25;17.93;;;9.70;;
41343;SDS011;27089;50.022;7.604;2022-12-07T02:54:52;17.67;;;10.13;;
41343;SDS011;27089;50.022;7.604;2022-12-07T02:57:28;15.13;;;9.30;;
41343;SDS011;27089;50.022;7.604;2022-12-07T03:00:11;13.63;;;9.30;;
41343;SDS011;27089;50.022;7.604;2022-12-07T03:02:46;15.17;;;10.00;;
41343;SDS011;27089;50.022;7.604;2022-12-07T03:05:34;16.10;;;10.17;;
41343;SDS011;27089;50.022;7.604;2022-12-07T03:08:18;16.13;;;9.90;;
41343;SDS011;27089;50.022;7.604;2022-12-07T03:10:54;16.40;;;10.13;;
41343;SDS011;27089;50.022;7.604;2022-12-07T03:13:25;16.60;;;10.43;;
41343;SDS011;27089;50.022;7.604;2022-12-07T03:16:00;16.37;;;11.07;;
41343;SDS011;27089;50.022;7.604;2022-12-07T03:18:33;15.20;;;10.40;;
41343;SDS011;27089;50.022;7.604;2022-12-07T03:21:05;14.90;;;10.23;;
41343;SDS011;27089;50.022;7.604;2022-12-07T03:23:37;17.07;;;10.77;;
41343;SDS011;27089;50.022;7.604;2022-12-07T03:26:06;14.67;;;9.77;;
41343;SDS011;27089;50.022;7.604;2022-12-07T03:28:38;18.13;;;11.20;;
41343;SDS011;27089;50.022;7.604;2022-12-07T03:31:11;18.10;;;11.40;;
41343;SDS011;27089;50.022;7.604;2022-12-07T03:33:43;15.97;;;10.83;;
41343;SDS011;27089;50.022;7.604;2022-12-07T03:36:16;17.87;;;10.90;;
41343;SDS011;27089;50.022;7.604;2022-12-07T03:38:49;16.83;;;10.27;;
41343;SDS011;27089;50.022;7.604;2022-12-07T03:41:21;17.37;;;11.47;;
41343;SDS011;27089;50.022;7.604;2022-12-07T03:43:51;19.87;;;12.23;;
41343;SDS011;27089;50.022;7.604;2022-12-07T03:46:23;16.90;;;11.50;;
41343;SDS011;27089;50.022;7.604;2022-12-07T03:48:56;19.47;;;11.40;;
41343;SDS011;27089;50.022;7.604;2022-12-07T03:51:32;17.87;;;11.77;;
41343;SDS011;27089;50.022;7.604;2022-12-07T03:54:07;18.57;;;11.70;;
41343;SDS011;27089;50.022;7.604;2022-12-07T03:56:38;15.67;;;10.80;;
41343;SDS011;27089;50.022;7.604;2022-12-07T03:59:06;15.80;;;10.10;;
41343;SDS011;27089;50.022;7.604;2022-12-07T04:01:35;14.17;;;9.87;;
41343;SDS011;27089;50.022;7.604;2022-12-07T04:04:02;17.67;;;9.90;;
41343;SDS011;27089;50.022;7.604;2022-12-07T04:06:29;15.47;;;9.90;;
41343;SDS011;27089;50.022;7.604;2022-12-07T04:08:56;17.60;;;10.73;;
41343;SDS011;27089;50.022;7.604;2022-12-07T04:11:23;14.97;;;10.50;;
41343;SDS011;27089;50.022;7.604;2022-12-07T04:13:50;17.03;;;10.90;;
41343;SDS011;27089;50.022;7.604;2022-12-07T04:16:36;15.87;;;10.73;;
41343;SDS011;27089;50.022;7.604;2022-12-07T04:19:03;17.17;;;10.63;;
41343;SDS011;27089;50.022;7.604;2022-12-07T04:21:30;15.93;;;9.93;;
41343;SDS011;27089;50.022;7.604;2022-12-07T04:23:57;16.93;;;10.53;;
41343;SDS011;27089;50.022;7.604;2022-12-07T04:26:24;16.47;;;10.00;;
41343;SDS011;27089;50.022;7.604;2022-12-07T04:28:50;15.07;;;10.70;;
41343;SDS011;27089;50.022;7.604;2022-12-07T04:31:17;15.63;;;9.53;;
41343;SDS011;27089;50.022;7.604;2022-12-07T04:33:46;16.13;;;10.80;;
41343;SDS011;27089;50.022;7.604;2022-12-07T04:36:13;15.40;;;9.83;;
41343;SDS011;27089;50.022;7.604;2022-12-07T04:38:40;16.67;;;10.43;;
41343;SDS011;27089;50.022;7.604;2022-12-07T04:41:07;16.80;;;10.67;;
41343;SDS011;27089;50.022;7.604;2022-12-07T04:43:34;14.83;;;9.77;;
41343;SDS011;27089;50.022;7.604;2022-12-07T04:46:02;15.87;;;10.23;;
41343;SDS011;27089;50.022;7.604;2022-12-07T04:48:29;15.83;;;10.30;;
41343;SDS011;27089;50.022;7.604;2022-12-07T04:50:58;15.57;;;10.23;;
41343;SDS011;27089;50.022;7.604;2022-12-07T04:53:24;17.20;;;10.47;;
41343;SDS011;27089;50.022;7.604;2022-12-07T04:55:51;21.33;;;11.00;;
41343;SDS011;27089;50.022;7.604;2022-12-07T04:58:18;17.50;;;11.03;;
41343;SDS011;27089;50.022;7.604;2022-12-07T05:00:45;17.70;;;10.93;;
41343;SDS011;27089;50.022;7.604;2022-12-07T05:03:12;17.07;;;10.87;;
41343;SDS011;27089;50.022;7.604;2022-12-07T05:05:39;19.13;;;11.13;;
41343;SDS011;27089;50.022;7.604;2022-12-07T05:08:08;18.67;;;11.30;;
41343;SDS011;27089;50.022;7.604;2022-12-07T05:10:35;16.27;;;10.80;;
41343;SDS011;27089;50.022;7.604;2022-12-07T05:13:02;17.13;;;10.23;;
41343;SDS011;27089;50.022;7.604;2022-12-07T05:15:29;16.73;;;10.87;;
41343;SDS011;27089;50.022;7.604;2022-12-07T05:17:56;18.47;;;10.97;;
41343;SDS011;27089;50.022;7.604;2022-12-07T05:20:23;20.00;;;11.30;;
41343;SDS011;27089;50.022;7.604;2022-12-07T05:22:50;18.53;;;11.60;;
41343;SDS011;27089;50.022;7.604;2022-12-07T05:25:18;16.80;;;11.00;;
41343;SDS011;27089;50.022;7.604;2022-12-07T05:27:45;16.83;;;11.20;;
41343;SDS011;27089;50.022;7.604;2022-12-07T05:30:12;16.30;;;10.77;;
41343;SDS011;27089;50.022;7.604;2022-12-07T05:32:39;17.07;;;10.97;;
41343;SDS011;27089;50.022;7.604;2022-12-07T05:35:06;19.23;;;11.80;;
41343;SDS011;27089;50.022;7.604;2022-12-07T05:37:34;18.40;;;11.07;;
41343;SDS011;27089;50.022;7.604;2022-12-07T05:40:01;16.87;;;11.30;;
41343;SDS011;27089;50.022;7.604;2022-12-07T05:42:30;20.17;;;12.13;;
41343;SDS011;27089;50.022;7.604;2022-12-07T05:44:57;17.80;;;11.43;;
41343;SDS011;27089;50.022;7.604;2022-12-07T05:47:24;21.83;;;12.30;;
41343;SDS011;27089;50.022;7.604;2022-12-07T05:49:51;17.23;;;11.17;;
41343;SDS011;27089;50.022;7.604;2022-12-07T05:52:18;19.00;;;11.83;;
41343;SDS011;27089;50.022;7.604;2022-12-07T05:54:45;19.83;;;12.03;;
41343;SDS011;27089;50.022;7.604;2022-12-07T05:57:12;21.67;;;12.07;;
41343;SDS011;27089;50.022;7.604;2022-12-07T05:59:40;21.30;;;12.43;;
41343;SDS011;27089;50.022;7.604;2022-12-07T06:02:07;18.83;;;11.93;;
41343;SDS011;27089;50.022;7.604;2022-12-07T06:04:36;19.10;;;12.07;;
41343;SDS011;27089;50.022;7.604;2022-12-07T06:07:04;17.10;;;11.27;;
41343;SDS011;27089;50.022;7.604;2022-12-07T06:09:32;19.90;;;11.63;;
41343;SDS011;27089;50.022;7.604;2022-12-07T06:12:00;19.17;;;11.73;;
41343;SDS011;27089;50.022;7.604;2022-12-07T06:14:46;17.23;;;11.23;;
41343;SDS011;27089;50.022;7.604;2022-12-07T06:17:13;18.50;;;12.20;;
41343;SDS011;27089;50.022;7.604;2022-12-07T06:19:40;21.00;;;12.73;;
41343;SDS011;27089;50.022;7.604;2022-12-07T06:22:10;19.00;;;12.37;;
41343;SDS011;27089;50.022;7.604;2022-12-07T06:24:38;18.10;;;11.33;;
41343;SDS011;27089;50.022;7.604;2022-12-07T06:27:05;17.97;;;12.17;;
41343;SDS011;27089;50.022;7.604;2022-12-07T06:29:32;16.97;;;11.23;;
41343;SDS011;27089;50.022;7.604;2022-12-07T06:32:01;19.27;;;11.93;;
41343;SDS011;27089;50.022;7.604;2022-12-07T06:34:28;18.23;;;12.27;;
41343;SDS011;27089;50.022;7.604;2022-12-07T06:36:55;18.83;;;11.43;;
41343;SDS011;27089;50.022;7.604;2022-12-07T06:39:23;17.67;;;11.10;;
41343;SDS011;27089;50.022;7.604;2022-12-07T06:41:51;20.33;;;11.07;;
41343;SDS011;27089;50.022;7.604;2022-12-07T06:44:19;17.43;;;11.00;;
41343;SDS011;27089;50.022;7.604;2022-12-07T06:46:47;16.90;;;11.77;;
41343;SDS011;27089;50.022;7.604;2022-12-07T06:49:15;18.60;;;11.37;;
41343;SDS011;27089;50.022;7.604;2022-12-07T06:51:42;16.83;;;11.07;;
41343;SDS011;27089;50.022;7.604;2022-12-07T06:54:09;17.47;;;10.97;;
41343;SDS011;27089;50.022;7.604;2022-12-07T06:56:38;17.70;;;11.00;;
41343;SDS011;27089;50.022;7.604;2022-12-07T06:59:05;15.77;;;10.23;;
41343;SDS011;27089;50.022;7.604;2022-12-07T07:01:33;18.90;;;11.30;;
41343;SDS011;27089;50.022;7.604;2022-12-07T07:04:01;16.83;;;10.80;;
41343;SDS011;27089;50.022;7.604;2022-12-07T07:06:29;17.73;;;11.07;;
41343;SDS011;27089;50.022;7.604;2022-12-07T07:08:56;16.63;;;10.93;;
41343;SDS011;27089;50.022;7.604;2022-12-07T07:11:23;18.00;;;10.33;;
41343;SDS011;27089;50.022;7.604;2022-12-07T07:13:50;18.40;;;11.33;;
41343;SDS011;27089;50.022;7.604;2022-12-07T07:16:18;16.67;;;10.43;;
41343;SDS011;27089;50.022;7.604;2022-12-07T07:18:45;14.67;;;9.67;;
41343;SDS011;27089;50.022;7.604;2022-12-07T07:21:12;15.27;;;9.87;;
41343;SDS011;27089;50.022;7.604;2022-12-07T07:23:41;18.80;;;11.07;;
41343;SDS011;27089;50.022;7.604;2022-12-07T07:26:07;19.40;;;11.00;;
41343;SDS011;27089;50.022;7.604;2022-12-07T07:28:34;19.17;;;11.53;;
41343;SDS011;27089;50.022;7.604;2022-12-07T07:31:02;22.27;;;14.77;;
41343;SDS011;27089;50.022;7.604;2022-12-07T07:33:29;22.23;;;14.13;;
41343;SDS011;27089;50.022;7.604;2022-12-07T07:35:56;23.13;;;14.37;;
41343;SDS011;27089;50.022;7.604;2022-12-07T07:38:23;24.47;;;15.03;;
41343;SDS011;27089;50.022;7.604;2022-12-07T07:40:51;23.27;;;14.63;;
41343;SDS011;27089;50.022;7.604;2022-12-07T07:43:18;24.40;;;15.10;;
41343;SDS011;27089;50.022;7.604;2022-12-07T07:45:45;22.77;;;14.87;;
41343;SDS011;27089;50.022;7.604;2022-12-07T07:48:12;23.87;;;14.30;;
41343;SDS011;27089;50.022;7.604;2022-12-07T07:50:39;30.17;;;17.53;;
41343;SDS011;27089;50.022;7.604;2022-12-07T07:53:06;20.97;;;13.80;;
41343;SDS011;27089;50.022;7.604;2022-12-07T07:55:33;24.43;;;17.13;;
41343;SDS011;27089;50.022;7.604;2022-12-07T07:58:01;19.93;;;12.73;;
41343;SDS011;27089;50.022;7.604;2022-12-07T08:00:28;14.60;;;9.60;;
41343;SDS011;27089;50.022;7.604;2022-12-07T08:02:55;14.37;;;9.93;;
41343;SDS011;27089;50.022;7.604;2022-12-07T08:05:22;15.07;;;10.83;;
41343;SDS011;27089;50.022;7.604;2022-12-07T08:07:49;16.50;;;10.13;;
41343;SDS011;27089;50.022;7.604;2022-12-07T08:10:16;12.60;;;8.37;;
41343;SDS011;27089;50.022;7.604;2022-12-07T08:12:43;17.03;;;9.10;;
41343;SDS011;27089;50.022;7.604;2022-12-07T08:15:29;12.40;;;8.13;;
41343;SDS011;27089;50.022;7.604;2022-12-07T08:17:57;11.53;;;8.13;;
41343;SDS011;27089;50.022;7.604;2022-12-07T08:20:24;14.33;;;8.27;;
41343;SDS011;27089;50.022;7.604;2022-12-07T08:22:51;10.67;;;7.30;;
41343;SDS011;27089;50.022;7.604;2022-12-07T08:25:19;17.33;;;11.70;;
41343;SDS011;27089;50.022;7.604;2022-12-07T08:27:47;57.50;;;36.63;;
41343;SDS011;27089;50.022;7.604;2022-12-07T08:30:14;53.00;;;35.97;;
41343;SDS011;27089;50.022;7.604;2022-12-07T08:32:42;23.10;;;14.87;;
41343;SDS011;27089;50.022;7.604;2022-12-07T08:35:10;13.93;;;8.83;;
41343;SDS011;27089;50.022;7.604;2022-12-07T08:37:38;9.90;;;6.67;;
41343;SDS011;27089;50.022;7.604;2022-12-07T08:40:06;9.80;;;6.77;;
41343;SDS011;27089;50.022;7.604;2022-12-07T08:42:34;8.53;;;6.20;;
41343;SDS011;27089;50.022;7.604;2022-12-07T08:45:05;11.50;;;7.47;;
41343;SDS011;27089;50.022;7.604;2022-12-07T08:47:33;11.67;;;7.07;;
41343;SDS011;27089;50.022;7.604;2022-12-07T08:50:02;11.43;;;7.83;;
41343;SDS011;27089;50.022;7.604;2022-12-07T08:52:32;10.73;;;7.53;;
41343;SDS011;27089;50.022;7.604;2022-12-07T08:54:59;11.57;;;7.90;;
41343;SDS011;27089;50.022;7.604;2022-12-07T08:57:28;135.23;;;66.60;;
41343;SDS011;27089;50.022;7.604;2022-12-07T08:59:55;100.40;;;52.80;;
41343;SDS011;27089;50.022;7.604;2022-12-07T09:02:23;29.27;;;17.53;;
41343;SDS011;27089;50.022;7.604;2022-12-07T09:04:50;21.03;;;16.10;;
41343;SDS011;27089;50.022;7.604;2022-12-07T09:07:18;14.00;;;11.17;;
41343;SDS011;27089;50.022;7.604;2022-12-07T09:09:45;10.00;;;8.13;;
41343;SDS011;27089;50.022;7.604;2022-12-07T09:12:12;9.80;;;7.10;;
41343;SDS011;27089;50.022;7.604;2022-12-07T09:14:39;9.60;;;6.00;;
41343;SDS011;27089;50.022;7.604;2022-12-07T09:17:07;12.50;;;7.80;;
41343;SDS011;27089;50.022;7.604;2022-12-07T09:19:35;10.80;;;8.57;;
41343;SDS011;27089;50.022;7.604;2022-12-07T09:22:02;12.20;;;8.20;;
41343;SDS011;27089;50.022;7.604;2022-12-07T09:24:32;11.80;;;8.70;;
41343;SDS011;27089;50.022;7.604;2022-12-07T09:26:59;8.77;;;5.50;;
41343;SDS011;27089;50.022;7.604;2022-12-07T09:29:26;7.47;;;4.70;;
41343;SDS011;27089;50.022;7.604;2022-12-07T09:31:53;7.90;;;5.70;;
41343;SDS011;27089;50.022;7.604;2022-12-07T09:34:20;6.80;;;5.77;;
41343;SDS011;27089;50.022;7.604;2022-12-07T09:36:47;7.03;;;6.03;;
41343;SDS011;27089;50.022;7.604;2022-12-07T09:39:14;7.20;;;5.30;;
41343;SDS011;27089;50.022;7.604;2022-12-07T09:41:43;8.13;;;6.60;;
41343;SDS011;27089;50.022;7.604;2022-12-07T09:44:12;8.50;;;4.97;;
41343;SDS011;27089;50.022;7.604;2022-12-07T09:46:41;6.83;;;5.20;;
41343;SDS011;27089;50.022;7.604;2022-12-07T09:49:10;10.20;;;5.90;;
41343;SDS011;27089;50.022;7.604;2022-12-07T09:51:39;7.50;;;4.63;;
41343;SDS011;27089;50.022;7.604;2022-12-07T09:54:07;8.43;;;4.80;;
41343;SDS011;27089;50.022;7.604;2022-12-07T09:56:38;8.87;;;5.87;;
41343;SDS011;27089;50.022;7.604;2022-12-07T09:59:09;8.27;;;4.73;;
41343;SDS011;27089;50.022;7.604;2022-12-07T10:01:43;6.70;;;4.37;;
41343;SDS011;27089;50.022;7.604;2022-12-07T10:04:12;8.67;;;5.40;;
41343;SDS011;27089;50.022;7.604;2022-12-07T10:06:41;6.17;;;4.30;;
41343;SDS011;27089;50.022;7.604;2022-12-07T10:09:09;7.13;;;4.47;;
41343;SDS011;27089;50.022;7.604;2022-12-07T10:11:57;5.20;;;3.80;;
41343;SDS011;27089;50.022;7.604;2022-12-07T10:14:27;5.17;;;3.60;;
41343;SDS011;27089;50.022;7.604;2022-12-07T10:16:57;5.80;;;3.47;;
41343;SDS011;27089;50.022;7.604;2022-12-07T10:19:25;5.37;;;3.33;;
41343;SDS011;27089;50.022;7.604;2022-12-07T10:22:04;5.67;;;3.50;;
41343;SDS011;27089;50.022;7.604;2022-12-07T10:24:36;4.50;;;3.03;;
41343;SDS011;27089;50.022;7.604;2022-12-07T10:27:04;5.27;;;3.97;;
41343;SDS011;27089;50.022;7.604;2022-12-07T10:29:33;5.47;;;3.43;;
41343;SDS011;27089;50.022;7.604;2022-12-07T10:32:03;6.67;;;3.80;;
41343;SDS011;27089;50.022;7.604;2022-12-07T10:34:34;7.33;;;3.70;;
41343;SDS011;27089;50.022;7.604;2022-12-07T10:37:15;28.00;;;18.17;;
41343;SDS011;27089;50.022;7.604;2022-12-07T10:39:45;12.07;;;8.27;;
41343;SDS011;27089;50.022;7.604;2022-12-07T10:42:18;7.77;;;4.43;;
41343;SDS011;27089;50.022;7.604;2022-12-07T10:44:47;7.27;;;4.63;;
41343;SDS011;27089;50.022;7.604;2022-12-07T10:47:20;9.03;;;5.10;;
41343;SDS011;27089;50.022;7.604;2022-12-07T10:50:13;9.47;;;5.33;;
41343;SDS011;27089;50.022;7.604;2022-12-07T10:53:02;9.63;;;6.53;;
41343;SDS011;27089;50.022;7.604;2022-12-07T10:55:41;8.90;;;5.03;;
41343;SDS011;27089;50.022;7.604;2022-12-07T10:58:26;7.37;;;5.30;;
41343;SDS011;27089;50.022;7.604;2022-12-07T11:01:06;6.50;;;4.07;;
41343;SDS011;27089;50.022;7.604;2022-12-07T11:03:46;7.63;;;4.93;;
41343;SDS011;27089;50.022;7.604;2022-12-07T11:06:23;6.10;;;4.77;;
41343;SDS011;27089;50.022;7.604;2022-12-07T11:08:58;7.83;;;4.20;;
41343;SDS011;27089;50.022;7.604;2022-12-07T11:11:34;8.83;;;7.30;;
41343;SDS011;27089;50.022;7.604;2022-12-07T11:14:06;5.87;;;4.30;;
41343;SDS011;27089;50.022;7.604;2022-12-07T11:16:49;8.33;;;6.20;;
41343;SDS011;27089;50.022;7.604;2022-12-07T11:19:39;8.37;;;5.77;;
41343;SDS011;27089;50.022;7.604;2022-12-07T11:22:18;5.53;;;4.13;;
41343;SDS011;27089;50.022;7.604;2022-12-07T11:24:52;5.57;;;4.30;;
41343;SDS011;27089;50.022;7.604;2022-12-07T11:27:28;5.40;;;4.40;;
41343;SDS011;27089;50.022;7.604;2022-12-07T11:30:10;5.40;;;3.50;;
41343;SDS011;27089;50.022;7.604;2022-12-07T11:35:34;6.17;;;4.07;;
41343;SDS011;27089;50.022;7.604;2022-12-07T11:38:11;5.53;;;3.90;;
41343;SDS011;27089;50.022;7.604;2022-12-07T11:40:40;5.60;;;3.90;;
41343;SDS011;27089;50.022;7.604;2022-12-07T11:43:13;6.33;;;3.53;;
41343;SDS011;27089;50.022;7.604;2022-12-07T11:45:46;5.40;;;3.43;;
41343;SDS011;27089;50.022;7.604;2022-12-07T11:48:21;4.13;;;3.37;;
41343;SDS011;27089;50.022;7.604;2022-12-07T11:50:56;5.60;;;3.47;;
41343;SDS011;27089;50.022;7.604;2022-12-07T11:53:26;4.20;;;3.20;;
41343;SDS011;27089;50.022;7.604;2022-12-07T11:56:00;3.80;;;2.60;;
41343;SDS011;27089;50.022;7.604;2022-12-07T11:58:37;4.50;;;2.50;;
41343;SDS011;27089;50.022;7.604;2022-12-07T12:04:07;5.30;;;3.10;;
41343;SDS011;27089;50.022;7.604;2022-12-07T12:06:45;2.43;;;2.00;;
41343;SDS011;27089;50.022;7.604;2022-12-07T12:09:12;5.80;;;2.80;;
41343;SDS011;27089;50.022;7.604;2022-12-07T12:11:48;4.40;;;3.27;;
41343;SDS011;27089;50.022;7.604;2022-12-07T12:14:32;4.50;;;3.43;;
41343;SDS011;27089;50.022;7.604;2022-12-07T12:20:17;4.10;;;2.53;;
41343;SDS011;27089;50.022;7.604;2022-12-07T12:22:50;3.90;;;2.40;;
41343;SDS011;27089;50.022;7.604;2022-12-07T12:25:21;4.83;;;2.07;;
41343;SDS011;27089;50.022;7.604;2022-12-07T12:27:51;6.10;;;2.70;;
41343;SDS011;27089;50.022;7.604;2022-12-07T12:30:25;8.23;;;4.80;;
41343;SDS011;27089;50.022;7.604;2022-12-07T12:33:01;7.43;;;3.23;;
41343;SDS011;27089;50.022;7.604;2022-12-07T12:35:40;3.27;;;2.13;;
41343;SDS011;27089;50.022;7.604;2022-12-07T12:40:56;4.33;;;2.43;;
41343;SDS011;27089;50.022;7.604;2022-12-07T12:49:32;5.63;;;2.17;;
41343;SDS011;27089;50.022;7.604;2022-12-07T12:52:44;7.07;;;1.80;;
41343;SDS011;27089;50.022;7.604;2022-12-07T12:55:15;3.33;;;1.70;;
41343;SDS011;27089;50.022;7.604;2022-12-07T12:57:48;3.40;;;2.00;;
41343;SDS011;27089;50.022;7.604;2022-12-07T13:04:14;28.43;;;13.67;;
41343;SDS011;27089;50.022;7.604;2022-12-07T13:07:03;15.13;;;8.67;;
41343;SDS011;27089;50.022;7.604;2022-12-07T13:09:32;6.13;;;3.40;;
41343;SDS011;27089;50.022;7.604;2022-12-07T13:12:02;6.60;;;4.33;;
41343;SDS011;27089;50.022;7.604;2022-12-07T13:23:15;5.40;;;3.67;;
41343;SDS011;27089;50.022;7.604;2022-12-07T13:25:48;5.40;;;2.77;;
41343;SDS011;27089;50.022;7.604;2022-12-07T13:28:31;5.03;;;2.90;;
41343;SDS011;27089;50.022;7.604;2022-12-07T13:31:09;4.37;;;2.47;;
41343;SDS011;27089;50.022;7.604;2022-12-07T13:34:03;3.53;;;2.30;;
41343;SDS011;27089;50.022;7.604;2022-12-07T13:36:32;4.17;;;2.30;;
41343;SDS011;27089;50.022;7.604;2022-12-07T13:41:51;8.27;;;2.93;;
41343;SDS011;27089;50.022;7.604;2022-12-07T13:44:20;2.63;;;2.03;;
41343;SDS011;27089;50.022;7.604;2022-12-07T13:46:50;4.90;;;2.20;;
41343;SDS011;27089;50.022;7.604;2022-12-07T13:49:23;5.37;;;2.70;;
41343;SDS011;27089;50.022;7.604;2022-12-07T13:51:52;3.27;;;2.23;;
41343;SDS011;27089;50.022;7.604;2022-12-07T13:54:19;5.93;;;2.50;;
41343;SDS011;27089;50.022;7.604;2022-12-07T13:56:49;4.77;;;2.77;;
41343;SDS011;27089;50.022;7.604;2022-12-07T13:59:18;5.17;;;3.10;;
41343;SDS011;27089;50.022;7.604;2022-12-07T14:01:47;4.93;;;3.37;;
41343;SDS011;27089;50.022;7.604;2022-12-07T14:04:16;5.13;;;3.37;;
41343;SDS011;27089;50.022;7.604;2022-12-07T14:06:55;5.27;;;3.00;;
41343;SDS011;27089;50.022;7.604;2022-12-07T14:09:23;6.67;;;3.17;;
41343;SDS011;27089;50.022;7.604;2022-12-07T14:11:53;4.37;;;3.17;;
41343;SDS011;27089;50.022;7.604;2022-12-07T14:14:22;5.90;;;3.43;;
41343;SDS011;27089;50.022;7.604;2022-12-07T14:16:56;6.17;;;3.77;;
41343;SDS011;27089;50.022;7.604;2022-12-07T14:19:42;3.70;;;3.10;;
41343;SDS011;27089;50.022;7.604;2022-12-07T14:22:22;5.37;;;3.57;;
41343;SDS011;27089;50.022;7.604;2022-12-07T14:24:57;7.43;;;3.63;;
41343;SDS011;27089;50.022;7.604;2022-12-07T14:27:30;6.43;;;3.67;;
41343;SDS011;27089;50.022;7.604;2022-12-07T14:30:00;6.60;;;3.37;;
41343;SDS011;27089;50.022;7.604;2022-12-07T14:32:28;4.73;;;3.10;;
41343;SDS011;27089;50.022;7.604;2022-12-07T14:34:56;5.57;;;3.50;;
41343;SDS011;27089;50.022;7.604;2022-12-07T14:37:25;4.47;;;2.70;;
41343;SDS011;27089;50.022;7.604;2022-12-07T14:39:55;5.93;;;3.00;;
41343;SDS011;27089;50.022;7.604;2022-12-07T14:42:23;6.27;;;3.27;;
41343;SDS011;27089;50.022;7.604;2022-12-07T14:44:55;15.43;;;10.47;;
41343;SDS011;27089;50.022;7.604;2022-12-07T14:47:22;28.57;;;16.13;;
41343;SDS011;27089;50.022;7.604;2022-12-07T14:49:49;14.40;;;7.87;;
41343;SDS011;27089;50.022;7.604;2022-12-07T14:52:17;13.63;;;7.60;;
41343;SDS011;27089;50.022;7.604;2022-12-07T14:54:47;8.63;;;4.80;;
41343;SDS011;27089;50.022;7.604;2022-12-07T14:57:14;11.13;;;7.47;;
41343;SDS011;27089;50.022;7.604;2022-12-07T14:59:41;8.77;;;5.63;;
41343;SDS011;27089;50.022;7.604;2022-12-07T15:02:10;7.50;;;4.47;;
41343;SDS011;27089;50.022;7.604;2022-12-07T15:04:41;7.33;;;4.10;;
41343;SDS011;27089;50.022;7.604;2022-12-07T15:07:10;8.23;;;4.53;;
41343;SDS011;27089;50.022;7.604;2022-12-07T15:09:41;8.27;;;4.93;;
41343;SDS011;27089;50.022;7.604;2022-12-07T15:12:08;8.27;;;4.40;;
41343;SDS011;27089;50.022;7.604;2022-12-07T15:14:35;11.83;;;7.20;;
41343;SDS011;27089;50.022;7.604;2022-12-07T15:17:02;17.07;;;12.37;;
41343;SDS011;27089;50.022;7.604;2022-12-07T15:19:31;19.87;;;13.30;;
41343;SDS011;27089;50.022;7.604;2022-12-07T15:21:58;11.27;;;7.60;;
41343;SDS011;27089;50.022;7.604;2022-12-07T15:24:25;10.83;;;6.50;;
41343;SDS011;27089;50.022;7.604;2022-12-07T15:26:52;22.70;;;14.90;;
41343;SDS011;27089;50.022;7.604;2022-12-07T15:29:19;9.47;;;6.20;;